Terminal Aerodrome Forecast
Issued by NWS Portland, OR

Home | Current Version | Previous Version | Text Only | Print | Product List | Glossary On
Versions: 1 2 3 4 5 6 7 8 9 10 11 12 13 14 15 16 17 18 19 20 21 22 23 24 25 26 27 28 29 30 31 32 33 34
000
FTUS46 KPQR 210520
TAFSLE
TAF
KSLE 210520Z 2106/2206 17008KT P6SM VCSH OVC070
     FM211100 17015G22KT 6SM -RA OVC050
     FM211500 17018G27KT 4SM -RA BR OVC025
     FM211700 18019G27KT 1 1/2SM -RA BR OVC015
     FM220300 19026G34KT 6SM -RA OVC050=

USA.gov is the U.S. government's official web portal to all federal, state and local government web resources and services.